sensor_id;sensor_type;location;lat;lon;timestamp;P1;durP1;ratioP1;P2;durP2;ratioP2
63217;SDS011;49314;48.278;16.378;2023-04-05T00:01:51;29.20;;;27.85;;
63217;SDS011;49314;48.278;16.378;2023-04-05T00:04:17;27.13;;;25.90;;
63217;SDS011;49314;48.278;16.378;2023-04-05T00:06:45;28.67;;;27.33;;
63217;SDS011;49314;48.278;16.378;2023-04-05T00:09:10;33.65;;;31.45;;
63217;SDS011;49314;48.278;16.378;2023-04-05T00:11:35;56.38;;;50.42;;
63217;SDS011;49314;48.278;16.378;2023-04-05T00:14:01;35.42;;;33.13;;
63217;SDS011;49314;48.278;16.378;2023-04-05T00:16:27;42.03;;;38.50;;
63217;SDS011;49314;48.278;16.378;2023-04-05T00:18:52;31.80;;;30.30;;
63217;SDS011;49314;48.278;16.378;2023-04-05T00:21:18;30.48;;;28.83;;
63217;SDS011;49314;48.278;16.378;2023-04-05T00:23:45;28.75;;;27.35;;
63217;SDS011;49314;48.278;16.378;2023-04-05T00:26:11;31.42;;;29.80;;
63217;SDS011;49314;48.278;16.378;2023-04-05T00:28:36;29.95;;;28.48;;
63217;SDS011;49314;48.278;16.378;2023-04-05T00:31:02;30.80;;;29.10;;
63217;SDS011;49314;48.278;16.378;2023-04-05T00:33:27;29.10;;;27.70;;
63217;SDS011;49314;48.278;16.378;2023-04-05T00:35:53;32.15;;;30.63;;
63217;SDS011;49314;48.278;16.378;2023-04-05T00:38:18;30.83;;;29.42;;
63217;SDS011;49314;48.278;16.378;2023-04-05T00:40:43;29.17;;;27.75;;
63217;SDS011;49314;48.278;16.378;2023-04-05T00:43:08;31.00;;;29.40;;
63217;SDS011;49314;48.278;16.378;2023-04-05T00:45:34;33.75;;;31.77;;
63217;SDS011;49314;48.278;16.378;2023-04-05T00:47:59;39.92;;;36.92;;
63217;SDS011;49314;48.278;16.378;2023-04-05T00:50:25;32.90;;;30.33;;
63217;SDS011;49314;48.278;16.378;2023-04-05T00:52:54;29.52;;;28.15;;
63217;SDS011;49314;48.278;16.378;2023-04-05T00:55:20;40.53;;;37.55;;
63217;SDS011;49314;48.278;16.378;2023-04-05T00:57:46;30.75;;;28.98;;
63217;SDS011;49314;48.278;16.378;2023-04-05T01:00:14;32.58;;;30.77;;
63217;SDS011;49314;48.278;16.378;2023-04-05T01:02:41;30.17;;;28.67;;
63217;SDS011;49314;48.278;16.378;2023-04-05T01:10:34;30.88;;;29.55;;
63217;SDS011;49314;48.278;16.378;2023-04-05T01:13:02;28.38;;;27.08;;
63217;SDS011;49314;48.278;16.378;2023-04-05T01:15:27;27.27;;;25.92;;
63217;SDS011;49314;48.278;16.378;2023-04-05T01:17:52;29.75;;;28.00;;
63217;SDS011;49314;48.278;16.378;2023-04-05T01:20:18;30.92;;;29.40;;
63217;SDS011;49314;48.278;16.378;2023-04-05T01:34:17;30.38;;;28.65;;
63217;SDS011;49314;48.278;16.378;2023-04-05T01:39:13;29.77;;;28.48;;
63217;SDS011;49314;48.278;16.378;2023-04-05T01:41:39;29.67;;;28.23;;
63217;SDS011;49314;48.278;16.378;2023-04-05T01:44:05;31.90;;;30.40;;
63217;SDS011;49314;48.278;16.378;2023-04-05T01:46:30;31.10;;;29.38;;
63217;SDS011;49314;48.278;16.378;2023-04-05T01:48:55;33.40;;;31.80;;
63217;SDS011;49314;48.278;16.378;2023-04-05T01:51:21;28.98;;;27.40;;
63217;SDS011;49314;48.278;16.378;2023-04-05T01:53:46;31.15;;;29.27;;
63217;SDS011;49314;48.278;16.378;2023-04-05T01:56:11;32.92;;;30.85;;
63217;SDS011;49314;48.278;16.378;2023-04-05T01:58:36;31.88;;;30.17;;
63217;SDS011;49314;48.278;16.378;2023-04-05T02:01:02;31.90;;;29.92;;
63217;SDS011;49314;48.278;16.378;2023-04-05T02:03:27;33.88;;;31.77;;
63217;SDS011;49314;48.278;16.378;2023-04-05T02:05:53;31.02;;;29.50;;
63217;SDS011;49314;48.278;16.378;2023-04-05T02:08:18;30.25;;;28.88;;
63217;SDS011;49314;48.278;16.378;2023-04-05T02:10:43;30.98;;;29.48;;
63217;SDS011;49314;48.278;16.378;2023-04-05T02:13:09;32.05;;;30.40;;
63217;SDS011;49314;48.278;16.378;2023-04-05T02:15:34;31.65;;;30.15;;
63217;SDS011;49314;48.278;16.378;2023-04-05T02:17:59;33.53;;;31.25;;
63217;SDS011;49314;48.278;16.378;2023-04-05T02:20:27;29.80;;;28.50;;
63217;SDS011;49314;48.278;16.378;2023-04-05T02:22:53;31.42;;;29.73;;
63217;SDS011;49314;48.278;16.378;2023-04-05T02:25:19;40.30;;;37.58;;
63217;SDS011;49314;48.278;16.378;2023-04-05T02:27:44;36.03;;;33.35;;
63217;SDS011;49314;48.278;16.378;2023-04-05T02:30:09;32.83;;;30.60;;
63217;SDS011;49314;48.278;16.378;2023-04-05T02:32:37;33.78;;;31.58;;
63217;SDS011;49314;48.278;16.378;2023-04-05T02:35:02;32.03;;;30.08;;
63217;SDS011;49314;48.278;16.378;2023-04-05T02:37:28;31.10;;;29.45;;
63217;SDS011;49314;48.278;16.378;2023-04-05T02:39:53;31.35;;;29.67;;
63217;SDS011;49314;48.278;16.378;2023-04-05T02:42:18;30.13;;;28.73;;
63217;SDS011;49314;48.278;16.378;2023-04-05T02:44:43;29.75;;;28.38;;
63217;SDS011;49314;48.278;16.378;2023-04-05T02:47:09;31.38;;;29.88;;
63217;SDS011;49314;48.278;16.378;2023-04-05T02:49:34;31.85;;;30.13;;
63217;SDS011;49314;48.278;16.378;2023-04-05T02:51:59;31.13;;;29.65;;
63217;SDS011;49314;48.278;16.378;2023-04-05T02:54:24;29.05;;;27.75;;
63217;SDS011;49314;48.278;16.378;2023-04-05T02:56:50;28.80;;;27.58;;
63217;SDS011;49314;48.278;16.378;2023-04-05T02:59:18;30.35;;;28.55;;
63217;SDS011;49314;48.278;16.378;2023-04-05T03:01:44;29.20;;;27.90;;
63217;SDS011;49314;48.278;16.378;2023-04-05T03:04:09;29.00;;;27.63;;
63217;SDS011;49314;48.278;16.378;2023-04-05T03:06:37;33.08;;;31.42;;
63217;SDS011;49314;48.278;16.378;2023-04-05T03:09:03;29.30;;;27.77;;
63217;SDS011;49314;48.278;16.378;2023-04-05T03:11:28;30.73;;;29.23;;
63217;SDS011;49314;48.278;16.378;2023-04-05T03:13:54;31.63;;;30.08;;
63217;SDS011;49314;48.278;16.378;2023-04-05T03:16:19;31.17;;;29.55;;
63217;SDS011;49314;48.278;16.378;2023-04-05T03:18:44;26.75;;;25.55;;
63217;SDS011;49314;48.278;16.378;2023-04-05T03:21:10;29.92;;;28.55;;
63217;SDS011;49314;48.278;16.378;2023-04-05T03:23:35;29.05;;;27.45;;
63217;SDS011;49314;48.278;16.378;2023-04-05T03:26:00;31.85;;;30.38;;
63217;SDS011;49314;48.278;16.378;2023-04-05T03:28:27;42.35;;;39.13;;
63217;SDS011;49314;48.278;16.378;2023-04-05T03:30:52;35.97;;;33.83;;
63217;SDS011;49314;48.278;16.378;2023-04-05T03:33:18;53.38;;;47.88;;
63217;SDS011;49314;48.278;16.378;2023-04-05T03:35:43;66.82;;;52.30;;
63217;SDS011;49314;48.278;16.378;2023-04-05T03:38:08;34.97;;;32.72;;
63217;SDS011;49314;48.278;16.378;2023-04-05T03:40:34;30.77;;;29.15;;
63217;SDS011;49314;48.278;16.378;2023-04-05T03:42:59;34.72;;;32.67;;
63217;SDS011;49314;48.278;16.378;2023-04-05T03:45:24;30.45;;;28.75;;
63217;SDS011;49314;48.278;16.378;2023-04-05T03:47:51;31.63;;;29.58;;
63217;SDS011;49314;48.278;16.378;2023-04-05T03:50:16;29.92;;;28.25;;
63217;SDS011;49314;48.278;16.378;2023-04-05T03:52:41;29.92;;;28.50;;
63217;SDS011;49314;48.278;16.378;2023-04-05T03:55:07;31.60;;;30.10;;
63217;SDS011;49314;48.278;16.378;2023-04-05T03:57:32;29.63;;;28.23;;
63217;SDS011;49314;48.278;16.378;2023-04-05T03:59:57;31.27;;;29.80;;
63217;SDS011;49314;48.278;16.378;2023-04-05T04:02:22;30.73;;;29.13;;
63217;SDS011;49314;48.278;16.378;2023-04-05T04:04:50;31.25;;;29.85;;
63217;SDS011;49314;48.278;16.378;2023-04-05T04:07:18;30.65;;;29.27;;
63217;SDS011;49314;48.278;16.378;2023-04-05T04:09:44;31.05;;;29.52;;
63217;SDS011;49314;48.278;16.378;2023-04-05T04:12:09;30.73;;;29.30;;
63217;SDS011;49314;48.278;16.378;2023-04-05T04:14:35;30.98;;;29.55;;
63217;SDS011;49314;48.278;16.378;2023-04-05T04:17:00;31.50;;;30.00;;
63217;SDS011;49314;48.278;16.378;2023-04-05T04:19:25;31.73;;;29.83;;
63217;SDS011;49314;48.278;16.378;2023-04-05T04:21:51;31.83;;;30.20;;
63217;SDS011;49314;48.278;16.378;2023-04-05T04:24:16;55.25;;;49.33;;
63217;SDS011;49314;48.278;16.378;2023-04-05T04:26:46;33.78;;;31.83;;
63217;SDS011;49314;48.278;16.378;2023-04-05T04:29:11;36.97;;;34.10;;
63217;SDS011;49314;48.278;16.378;2023-04-05T04:31:42;33.53;;;31.38;;
63217;SDS011;49314;48.278;16.378;2023-04-05T04:34:12;33.70;;;31.90;;
63217;SDS011;49314;48.278;16.378;2023-04-05T04:36:38;31.55;;;29.63;;
63217;SDS011;49314;48.278;16.378;2023-04-05T04:39:07;39.05;;;35.60;;
63217;SDS011;49314;48.278;16.378;2023-04-05T04:41:32;32.97;;;30.98;;
63217;SDS011;49314;48.278;16.378;2023-04-05T04:44:02;29.67;;;28.17;;
63217;SDS011;49314;48.278;16.378;2023-04-05T04:46:28;31.23;;;29.42;;
63217;SDS011;49314;48.278;16.378;2023-04-05T04:48:59;31.33;;;29.83;;
63217;SDS011;49314;48.278;16.378;2023-04-05T04:51:25;30.50;;;28.73;;
63217;SDS011;49314;48.278;16.378;2023-04-05T04:53:50;31.67;;;29.98;;
63217;SDS011;49314;48.278;16.378;2023-04-05T04:56:15;30.58;;;29.20;;
63217;SDS011;49314;48.278;16.378;2023-04-05T04:58:41;30.85;;;29.48;;
63217;SDS011;49314;48.278;16.378;2023-04-05T05:01:06;30.02;;;28.63;;
63217;SDS011;49314;48.278;16.378;2023-04-05T05:03:33;31.33;;;29.77;;
63217;SDS011;49314;48.278;16.378;2023-04-05T05:05:58;31.40;;;29.65;;
63217;SDS011;49314;48.278;16.378;2023-04-05T05:08:23;29.45;;;28.17;;
63217;SDS011;49314;48.278;16.378;2023-04-05T05:10:49;29.55;;;28.27;;
63217;SDS011;49314;48.278;16.378;2023-04-05T05:13:16;28.33;;;27.00;;
63217;SDS011;49314;48.278;16.378;2023-04-05T05:15:41;30.35;;;28.55;;
63217;SDS011;49314;48.278;16.378;2023-04-05T05:18:06;31.23;;;29.83;;
63217;SDS011;49314;48.278;16.378;2023-04-05T05:20:32;30.00;;;28.60;;
63217;SDS011;49314;48.278;16.378;2023-04-05T05:22:57;35.95;;;33.85;;
63217;SDS011;49314;48.278;16.378;2023-04-05T05:25:25;39.35;;;36.20;;
63217;SDS011;49314;48.278;16.378;2023-04-05T05:27:50;34.50;;;32.40;;
63217;SDS011;49314;48.278;16.378;2023-04-05T05:30:16;33.33;;;31.10;;
63217;SDS011;49314;48.278;16.378;2023-04-05T05:32:41;41.38;;;38.05;;
63217;SDS011;49314;48.278;16.378;2023-04-05T05:35:07;32.38;;;30.55;;
63217;SDS011;49314;48.278;16.378;2023-04-05T05:37:32;29.85;;;28.02;;
63217;SDS011;49314;48.278;16.378;2023-04-05T05:39:58;32.85;;;31.02;;
63217;SDS011;49314;48.278;16.378;2023-04-05T05:42:23;27.25;;;25.83;;
63217;SDS011;49314;48.278;16.378;2023-04-05T05:44:48;31.08;;;29.45;;
63217;SDS011;49314;48.278;16.378;2023-04-05T05:47:13;29.70;;;27.90;;
63217;SDS011;49314;48.278;16.378;2023-04-05T05:49:39;27.90;;;26.35;;
63217;SDS011;49314;48.278;16.378;2023-04-05T05:52:04;30.20;;;28.67;;
63217;SDS011;49314;48.278;16.378;2023-04-05T05:54:30;29.42;;;27.80;;
63217;SDS011;49314;48.278;16.378;2023-04-05T05:56:55;28.70;;;27.35;;
63217;SDS011;49314;48.278;16.378;2023-04-05T05:59:20;27.00;;;25.55;;
63217;SDS011;49314;48.278;16.378;2023-04-05T06:01:46;26.80;;;25.40;;
63217;SDS011;49314;48.278;16.378;2023-04-05T06:04:14;27.65;;;26.25;;
63217;SDS011;49314;48.278;16.378;2023-04-05T06:06:40;29.10;;;27.40;;
63217;SDS011;49314;48.278;16.378;2023-04-05T06:09:07;28.90;;;27.48;;
63217;SDS011;49314;48.278;16.378;2023-04-05T06:11:33;28.95;;;27.65;;
63217;SDS011;49314;48.278;16.378;2023-04-05T06:13:58;31.35;;;29.35;;
63217;SDS011;49314;48.278;16.378;2023-04-05T06:16:23;30.23;;;28.65;;
63217;SDS011;49314;48.278;16.378;2023-04-05T06:18:48;32.40;;;30.80;;
63217;SDS011;49314;48.278;16.378;2023-04-05T06:21:14;29.77;;;28.38;;
63217;SDS011;49314;48.278;16.378;2023-04-05T06:23:40;30.05;;;28.45;;
63217;SDS011;49314;48.278;16.378;2023-04-05T06:26:06;30.35;;;28.83;;
63217;SDS011;49314;48.278;16.378;2023-04-05T06:28:31;29.50;;;27.92;;
63217;SDS011;49314;48.278;16.378;2023-04-05T06:30:57;30.85;;;29.45;;
63217;SDS011;49314;48.278;16.378;2023-04-05T06:33:22;31.33;;;29.55;;
63217;SDS011;49314;48.278;16.378;2023-04-05T06:35:47;29.65;;;28.05;;
63217;SDS011;49314;48.278;16.378;2023-04-05T06:38:13;30.05;;;28.33;;
63217;SDS011;49314;48.278;16.378;2023-04-05T06:40:38;29.63;;;27.98;;
63217;SDS011;49314;48.278;16.378;2023-04-05T06:43:03;29.73;;;28.27;;
63217;SDS011;49314;48.278;16.378;2023-04-05T06:45:29;24.25;;;23.20;;
63217;SDS011;49314;48.278;16.378;2023-04-05T06:47:55;27.15;;;25.70;;
63217;SDS011;49314;48.278;16.378;2023-04-05T06:50:20;25.50;;;24.20;;
63217;SDS011;49314;48.278;16.378;2023-04-05T06:52:45;29.35;;;28.10;;
63217;SDS011;49314;48.278;16.378;2023-04-05T06:55:11;15.05;;;14.07;;
63217;SDS011;49314;48.278;16.378;2023-04-05T06:57:36;29.05;;;27.63;;
63217;SDS011;49314;48.278;16.378;2023-04-05T07:00:01;29.15;;;27.30;;
63217;SDS011;49314;48.278;16.378;2023-04-05T07:02:32;27.23;;;26.00;;
63217;SDS011;49314;48.278;16.378;2023-04-05T07:04:58;28.00;;;26.48;;
63217;SDS011;49314;48.278;16.378;2023-04-05T07:07:28;28.40;;;27.10;;
63217;SDS011;49314;48.278;16.378;2023-04-05T07:09:54;28.33;;;26.92;;
63217;SDS011;49314;48.278;16.378;2023-04-05T07:12:19;26.95;;;25.45;;
63217;SDS011;49314;48.278;16.378;2023-04-05T07:14:44;25.38;;;24.10;;
63217;SDS011;49314;48.278;16.378;2023-04-05T07:17:09;27.10;;;25.83;;
63217;SDS011;49314;48.278;16.378;2023-04-05T07:19:35;20.00;;;18.63;;
63217;SDS011;49314;48.278;16.378;2023-04-05T07:22:00;26.52;;;25.23;;
63217;SDS011;49314;48.278;16.378;2023-04-05T07:24:25;17.95;;;17.10;;
63217;SDS011;49314;48.278;16.378;2023-04-05T07:26:50;29.85;;;28.27;;
63217;SDS011;49314;48.278;16.378;2023-04-05T07:29:16;26.60;;;25.38;;
63217;SDS011;49314;48.278;16.378;2023-04-05T07:31:41;30.58;;;29.00;;
63217;SDS011;49314;48.278;16.378;2023-04-05T07:34:06;25.63;;;24.50;;
63217;SDS011;49314;48.278;16.378;2023-04-05T07:36:32;26.75;;;25.38;;
63217;SDS011;49314;48.278;16.378;2023-04-05T07:38:57;25.67;;;24.48;;
63217;SDS011;49314;48.278;16.378;2023-04-05T07:41:23;14.77;;;13.77;;
63217;SDS011;49314;48.278;16.378;2023-04-05T07:43:49;26.75;;;25.13;;
63217;SDS011;49314;48.278;16.378;2023-04-05T07:46:14;25.73;;;24.27;;
63217;SDS011;49314;48.278;16.378;2023-04-05T07:48:40;14.23;;;13.38;;
63217;SDS011;49314;48.278;16.378;2023-04-05T07:51:05;12.35;;;11.50;;
63217;SDS011;49314;48.278;16.378;2023-04-05T07:53:31;10.65;;;9.82;;
63217;SDS011;49314;48.278;16.378;2023-04-05T07:55:57;10.32;;;9.48;;
63217;SDS011;49314;48.278;16.378;2023-04-05T07:58:23;9.15;;;8.32;;
63217;SDS011;49314;48.278;16.378;2023-04-05T08:00:48;8.40;;;7.60;;
63217;SDS011;49314;48.278;16.378;2023-04-05T08:03:13;8.45;;;7.75;;
63217;SDS011;49314;48.278;16.378;2023-04-05T08:05:38;8.20;;;7.07;;
63217;SDS011;49314;48.278;16.378;2023-04-05T08:08:04;9.63;;;8.85;;
63217;SDS011;49314;48.278;16.378;2023-04-05T08:10:29;8.43;;;7.63;;
63217;SDS011;49314;48.278;16.378;2023-04-05T08:12:54;6.88;;;6.25;;
63217;SDS011;49314;48.278;16.378;2023-04-05T08:15:20;7.07;;;6.47;;
63217;SDS011;49314;48.278;16.378;2023-04-05T08:17:45;6.82;;;6.13;;
63217;SDS011;49314;48.278;16.378;2023-04-05T08:20:10;7.03;;;6.32;;
63217;SDS011;49314;48.278;16.378;2023-04-05T08:22:36;6.13;;;5.63;;
63217;SDS011;49314;48.278;16.378;2023-04-05T08:25:01;7.57;;;6.80;;
63217;SDS011;49314;48.278;16.378;2023-04-05T08:27:26;5.97;;;5.53;;
63217;SDS011;49314;48.278;16.378;2023-04-05T08:29:51;6.20;;;5.65;;
63217;SDS011;49314;48.278;16.378;2023-04-05T08:32:17;6.43;;;5.93;;
63217;SDS011;49314;48.278;16.378;2023-04-05T08:34:42;6.40;;;5.35;;
63217;SDS011;49314;48.278;16.378;2023-04-05T08:37:07;5.43;;;4.43;;
63217;SDS011;49314;48.278;16.378;2023-04-05T08:39:35;5.27;;;4.63;;
63217;SDS011;49314;48.278;16.378;2023-04-05T08:42:07;5.55;;;4.97;;
63217;SDS011;49314;48.278;16.378;2023-04-05T08:44:32;5.15;;;4.30;;
63217;SDS011;49314;48.278;16.378;2023-04-05T08:47:02;6.20;;;4.72;;
63217;SDS011;49314;48.278;16.378;2023-04-05T08:49:28;5.70;;;5.20;;
63217;SDS011;49314;48.278;16.378;2023-04-05T08:51:54;5.15;;;4.03;;
63217;SDS011;49314;48.278;16.378;2023-04-05T08:54:19;4.72;;;4.32;;
63217;SDS011;49314;48.278;16.378;2023-04-05T08:56:45;4.53;;;4.03;;
63217;SDS011;49314;48.278;16.378;2023-04-05T08:59:12;6.50;;;4.60;;
63217;SDS011;49314;48.278;16.378;2023-04-05T09:01:43;4.63;;;4.10;;
63217;SDS011;49314;48.278;16.378;2023-04-05T09:04:09;6.38;;;4.38;;
63217;SDS011;49314;48.278;16.378;2023-04-05T09:06:36;5.32;;;4.93;;
63217;SDS011;49314;48.278;16.378;2023-04-05T09:09:02;5.50;;;3.75;;
63217;SDS011;49314;48.278;16.378;2023-04-05T09:11:29;4.25;;;3.85;;
63217;SDS011;49314;48.278;16.378;2023-04-05T09:13:55;5.85;;;4.00;;
63217;SDS011;49314;48.278;16.378;2023-04-05T09:16:20;4.17;;;3.57;;
63217;SDS011;49314;48.278;16.378;2023-04-05T09:18:45;4.90;;;4.40;;
63217;SDS011;49314;48.278;16.378;2023-04-05T09:21:11;5.45;;;4.80;;
63217;SDS011;49314;48.278;16.378;2023-04-05T09:23:36;4.93;;;4.45;;
63217;SDS011;49314;48.278;16.378;2023-04-05T09:26:16;5.85;;;4.10;;
63217;SDS011;49314;48.278;16.378;2023-04-05T09:28:41;6.97;;;5.50;;
63217;SDS011;49314;48.278;16.378;2023-04-05T09:31:07;7.07;;;5.10;;
63217;SDS011;49314;48.278;16.378;2023-04-05T09:33:32;5.68;;;4.63;;
63217;SDS011;49314;48.278;16.378;2023-04-05T09:35:58;5.53;;;4.55;;
63217;SDS011;49314;48.278;16.378;2023-04-05T09:38:41;5.30;;;4.80;;
63217;SDS011;49314;48.278;16.378;2023-04-05T09:41:07;7.00;;;6.00;;
63217;SDS011;49314;48.278;16.378;2023-04-05T09:43:39;6.50;;;6.00;;
63217;SDS011;49314;48.278;16.378;2023-04-05T09:46:05;6.05;;;4.10;;
63217;SDS011;49314;48.278;16.378;2023-04-05T09:48:49;6.43;;;5.55;;
63217;SDS011;49314;48.278;16.378;2023-04-05T09:51:15;5.40;;;4.90;;
63217;SDS011;49314;48.278;16.378;2023-04-05T09:56:25;6.03;;;4.60;;
63217;SDS011;49314;48.278;16.378;2023-04-05T09:58:51;4.80;;;4.30;;
63217;SDS011;49314;48.278;16.378;2023-04-05T10:01:18;4.70;;;3.13;;
63217;SDS011;49314;48.278;16.378;2023-04-05T10:03:46;4.35;;;3.95;;
63217;SDS011;49314;48.278;16.378;2023-04-05T10:06:12;4.05;;;3.65;;
63217;SDS011;49314;48.278;16.378;2023-04-05T10:08:38;4.82;;;4.47;;
63217;SDS011;49314;48.278;16.378;2023-04-05T10:11:03;5.72;;;5.22;;
63217;SDS011;49314;48.278;16.378;2023-04-05T10:13:30;4.93;;;4.35;;
63217;SDS011;49314;48.278;16.378;2023-04-05T10:15:55;5.57;;;4.43;;
63217;SDS011;49314;48.278;16.378;2023-04-05T10:18:23;5.68;;;5.10;;
63217;SDS011;49314;48.278;16.378;2023-04-05T10:20:52;4.03;;;3.47;;
63217;SDS011;49314;48.278;16.378;2023-04-05T10:23:21;5.55;;;3.35;;
63217;SDS011;49314;48.278;16.378;2023-04-05T10:28:28;3.88;;;3.10;;
63217;SDS011;49314;48.278;16.378;2023-04-05T10:30:55;4.05;;;2.95;;
63217;SDS011;49314;48.278;16.378;2023-04-05T10:35:49;4.10;;;3.40;;
63217;SDS011;49314;48.278;16.378;2023-04-05T10:38:27;4.17;;;3.03;;
63217;SDS011;49314;48.278;16.378;2023-04-05T10:43:24;4.80;;;4.18;;
63217;SDS011;49314;48.278;16.378;2023-04-05T10:45:51;6.32;;;5.63;;
63217;SDS011;49314;48.278;16.378;2023-04-05T10:48:24;6.15;;;4.82;;
63217;SDS011;49314;48.278;16.378;2023-04-05T10:50:52;4.60;;;4.20;;
63217;SDS011;49314;48.278;16.378;2023-04-05T10:53:18;4.63;;;4.32;;
63217;SDS011;49314;48.278;16.378;2023-04-05T10:55:44;5.20;;;4.80;;
63217;SDS011;49314;48.278;16.378;2023-04-05T10:58:11;4.72;;;4.32;;
63217;SDS011;49314;48.278;16.378;2023-04-05T11:00:37;5.35;;;4.88;;
63217;SDS011;49314;48.278;16.378;2023-04-05T11:03:02;6.45;;;5.95;;
63217;SDS011;49314;48.278;16.378;2023-04-05T11:05:28;5.67;;;5.27;;
63217;SDS011;49314;48.278;16.378;2023-04-05T11:07:56;6.65;;;6.13;;
63217;SDS011;49314;48.278;16.378;2023-04-05T11:10:23;10.70;;;9.85;;
63217;SDS011;49314;48.278;16.378;2023-04-05T11:20:25;6.97;;;6.28;;
63217;SDS011;49314;48.278;16.378;2023-04-05T11:22:52;7.17;;;6.50;;
63217;SDS011;49314;48.278;16.378;2023-04-05T11:25:21;6.43;;;5.93;;
63217;SDS011;49314;48.278;16.378;2023-04-05T11:27:58;6.80;;;6.18;;
63217;SDS011;49314;48.278;16.378;2023-04-05T11:33:08;11.02;;;8.93;;
63217;SDS011;49314;48.278;16.378;2023-04-05T11:35:33;6.73;;;6.27;;
63217;SDS011;49314;48.278;16.378;2023-04-05T11:40:24;5.23;;;4.83;;
63217;SDS011;49314;48.278;16.378;2023-04-05T11:43:02;5.20;;;4.70;;
63217;SDS011;49314;48.278;16.378;2023-04-05T11:45:29;4.45;;;4.10;;
63217;SDS011;49314;48.278;16.378;2023-04-05T11:47:56;5.00;;;4.60;;
63217;SDS011;49314;48.278;16.378;2023-04-05T11:50:22;6.05;;;5.15;;
63217;SDS011;49314;48.278;16.378;2023-04-05T11:53:06;5.70;;;4.97;;
63217;SDS011;49314;48.278;16.378;2023-04-05T11:55:31;7.43;;;6.78;;
63217;SDS011;49314;48.278;16.378;2023-04-05T11:57:56;7.03;;;6.43;;
63217;SDS011;49314;48.278;16.378;2023-04-05T12:00:21;5.47;;;5.07;;
63217;SDS011;49314;48.278;16.378;2023-04-05T12:02:47;5.53;;;5.13;;
63217;SDS011;49314;48.278;16.378;2023-04-05T12:05:12;6.20;;;5.70;;
63217;SDS011;49314;48.278;16.378;2023-04-05T12:07:37;5.38;;;5.05;;
63217;SDS011;49314;48.278;16.378;2023-04-05T12:12:41;5.88;;;5.35;;
63217;SDS011;49314;48.278;16.378;2023-04-05T12:15:08;5.57;;;5.05;;
63217;SDS011;49314;48.278;16.378;2023-04-05T12:17:38;4.68;;;3.65;;
63217;SDS011;49314;48.278;16.378;2023-04-05T12:20:03;5.78;;;5.28;;
63217;SDS011;49314;48.278;16.378;2023-04-05T12:22:28;4.57;;;4.18;;
63217;SDS011;49314;48.278;16.378;2023-04-05T12:24:54;5.30;;;3.40;;
63217;SDS011;49314;48.278;16.378;2023-04-05T12:27:19;3.60;;;3.30;;
63217;SDS011;49314;48.278;16.378;2023-04-05T12:30:03;4.72;;;4.20;;
63217;SDS011;49314;48.278;16.378;2023-04-05T12:32:34;4.03;;;3.70;;
63217;SDS011;49314;48.278;16.378;2023-04-05T12:34:59;6.25;;;4.15;;
63217;SDS011;49314;48.278;16.378;2023-04-05T12:37:26;4.82;;;4.43;;
63217;SDS011;49314;48.278;16.378;2023-04-05T12:39:53;11.15;;;7.35;;
63217;SDS011;49314;48.278;16.378;2023-04-05T12:42:18;5.57;;;5.07;;
63217;SDS011;49314;48.278;16.378;2023-04-05T12:44:43;7.27;;;5.60;;
63217;SDS011;49314;48.278;16.378;2023-04-05T12:47:08;10.87;;;8.73;;
63217;SDS011;49314;48.278;16.378;2023-04-05T12:49:37;5.72;;;5.22;;
63217;SDS011;49314;48.278;16.378;2023-04-05T12:52:03;4.82;;;4.43;;
63217;SDS011;49314;48.278;16.378;2023-04-05T12:54:28;8.88;;;5.47;;
63217;SDS011;49314;48.278;16.378;2023-04-05T12:56:55;5.65;;;5.15;;
63217;SDS011;49314;48.278;16.378;2023-04-05T12:59:21;5.53;;;5.03;;
63217;SDS011;49314;48.278;16.378;2023-04-05T13:01:46;4.60;;;4.32;;
63217;SDS011;49314;48.278;16.378;2023-04-05T13:04:11;4.90;;;4.50;;
63217;SDS011;49314;48.278;16.378;2023-04-05T13:06:36;5.30;;;4.90;;
63217;SDS011;49314;48.278;16.378;2023-04-05T13:09:02;8.03;;;5.17;;
63217;SDS011;49314;48.278;16.378;2023-04-05T13:11:27;5.55;;;5.05;;
63217;SDS011;49314;48.278;16.378;2023-04-05T13:13:52;5.68;;;5.25;;
63217;SDS011;49314;48.278;16.378;2023-04-05T13:16:17;5.95;;;5.43;;
63217;SDS011;49314;48.278;16.378;2023-04-05T13:18:43;5.45;;;4.95;;
63217;SDS011;49314;48.278;16.378;2023-04-05T13:21:08;6.80;;;6.32;;
63217;SDS011;49314;48.278;16.378;2023-04-05T13:23:34;5.25;;;4.85;;
63217;SDS011;49314;48.278;16.378;2023-04-05T13:26:00;6.10;;;4.45;;
63217;SDS011;49314;48.278;16.378;2023-04-05T13:28:25;7.32;;;6.72;;
63217;SDS011;49314;48.278;16.378;2023-04-05T13:30:51;7.03;;;6.63;;
63217;SDS011;49314;48.278;16.378;2023-04-05T13:33:16;9.38;;;8.80;;
63217;SDS011;49314;48.278;16.378;2023-04-05T13:35:42;9.98;;;9.13;;
63217;SDS011;49314;48.278;16.378;2023-04-05T13:38:07;12.87;;;11.53;;
63217;SDS011;49314;48.278;16.378;2023-04-05T13:40:32;7.20;;;6.70;;
63217;SDS011;49314;48.278;16.378;2023-04-05T13:42:57;10.80;;;9.80;;
63217;SDS011;49314;48.278;16.378;2023-04-05T13:45:23;9.27;;;8.45;;
63217;SDS011;49314;48.278;16.378;2023-04-05T13:47:48;8.47;;;7.83;;
63217;SDS011;49314;48.278;16.378;2023-04-05T13:50:13;6.20;;;5.70;;
63217;SDS011;49314;48.278;16.378;2023-04-05T13:52:38;8.13;;;7.38;;
63217;SDS011;49314;48.278;16.378;2023-04-05T13:55:04;7.68;;;7.10;;
63217;SDS011;49314;48.278;16.378;2023-04-05T13:57:29;5.82;;;5.43;;
63217;SDS011;49314;48.278;16.378;2023-04-05T13:59:54;7.63;;;7.13;;
63217;SDS011;49314;48.278;16.378;2023-04-05T14:02:20;6.27;;;5.97;;
63217;SDS011;49314;48.278;16.378;2023-04-05T14:04:49;5.80;;;5.40;;
63217;SDS011;49314;48.278;16.378;2023-04-05T14:07:15;5.47;;;5.18;;
63217;SDS011;49314;48.278;16.378;2023-04-05T14:09:40;5.85;;;5.45;;
63217;SDS011;49314;48.278;16.378;2023-04-05T14:12:05;7.40;;;6.78;;
63217;SDS011;49314;48.278;16.378;2023-04-05T14:14:30;7.15;;;6.75;;
63217;SDS011;49314;48.278;16.378;2023-04-05T14:16:56;6.72;;;6.13;;
63217;SDS011;49314;48.278;16.378;2023-04-05T14:19:21;6.95;;;6.45;;
63217;SDS011;49314;48.278;16.378;2023-04-05T14:21:46;6.77;;;6.27;;
63217;SDS011;49314;48.278;16.378;2023-04-05T14:24:12;8.00;;;7.40;;
63217;SDS011;49314;48.278;16.378;2023-04-05T14:26:37;8.05;;;7.40;;
63217;SDS011;49314;48.278;16.378;2023-04-05T14:29:03;6.68;;;6.18;;
63217;SDS011;49314;48.278;16.378;2023-04-05T14:31:28;6.35;;;5.95;;
63217;SDS011;49314;48.278;16.378;2023-04-05T14:33:54;7.20;;;6.70;;
63217;SDS011;49314;48.278;16.378;2023-04-05T14:36:19;7.25;;;6.70;;
63217;SDS011;49314;48.278;16.378;2023-04-05T14:38:44;7.32;;;6.72;;
63217;SDS011;49314;48.278;16.378;2023-04-05T14:41:10;8.93;;;8.15;;
63217;SDS011;49314;48.278;16.378;2023-04-05T14:43:36;10.85;;;9.70;;
63217;SDS011;49314;48.278;16.378;2023-04-05T14:46:01;9.55;;;8.75;;
63217;SDS011;49314;48.278;16.378;2023-04-05T14:48:27;7.00;;;6.50;;
63217;SDS011;49314;48.278;16.378;2023-04-05T14:50:54;10.23;;;9.27;;
63217;SDS011;49314;48.278;16.378;2023-04-05T14:53:19;8.05;;;7.35;;
63217;SDS011;49314;48.278;16.378;2023-04-05T14:55:45;9.82;;;9.05;;
63217;SDS011;49314;48.278;16.378;2023-04-05T14:58:10;9.85;;;8.85;;
63217;SDS011;49314;48.278;16.378;2023-04-05T15:00:35;10.02;;;9.32;;